Lake of the Woods, Illinois
Current Conditions -  °F | °C
As of 11:10 PM on Friday 21 Nov 2014 (Local Time) from KPIA Reporting Station
Freezing Rain Freezing Rain  
Wind Chill: 25°   Ceiling: 1700
Heat Index: 34°   Visibility: 3mi
Dew Point: 28°   Wind: 12mph
Humidity: 79%   Direction: 180°S
Pressure: 30.18"   Gusts: NA
Location:  40.8455°N, 89.6704°W
Report Text: KPIA 220510Z 18010KT 3SM FZRA BKN017 BKN026 OVC033 01/M02 A3018 RMK AO2 P0002 I1002 T00111022
Loading
Personal Weather Stations






























Interactive Weather Map New forecast layout! Learn more

10-Day Weather Forecast

Advertisements
Track Severe Weather on mobile